sensor_id;sensor_type;location;lat;lon;timestamp;temperature;humidity
10278;DHT22;5184;51.376;7.148;2022-07-23T00:01:32;16.50;20.90
10278;DHT22;5184;51.376;7.148;2022-07-23T00:03:59;16.50;46.50
10278;DHT22;5184;51.376;7.148;2022-07-23T00:06:26;16.40;42.80
10278;DHT22;5184;51.376;7.148;2022-07-23T00:08:54;16.30;40.30
10278;DHT22;5184;51.376;7.148;2022-07-23T00:11:20;16.40;35.70
10278;DHT22;5184;51.376;7.148;2022-07-23T00:13:47;16.40;79.00
10278;DHT22;5184;51.376;7.148;2022-07-23T00:16:13;16.30;61.00
10278;DHT22;5184;51.376;7.148;2022-07-23T00:18:41;16.30;89.90
10278;DHT22;5184;51.376;7.148;2022-07-23T00:21:07;16.30;84.90
10278;DHT22;5184;51.376;7.148;2022-07-23T00:23:34;16.30;75.20
10278;DHT22;5184;51.376;7.148;2022-07-23T00:26:01;16.30;89.60
10278;DHT22;5184;51.376;7.148;2022-07-23T00:28:28;16.20;99.90
10278;DHT22;5184;51.376;7.148;2022-07-23T00:30:55;16.20;99.90
10278;DHT22;5184;51.376;7.148;2022-07-23T00:33:22;16.20;99.90
10278;DHT22;5184;51.376;7.148;2022-07-23T00:35:48;16.20;97.30
10278;DHT22;5184;51.376;7.148;2022-07-23T00:38:15;16.20;99.90
10278;DHT22;5184;51.376;7.148;2022-07-23T00:40:42;16.20;99.90
10278;DHT22;5184;51.376;7.148;2022-07-23T00:43:09;16.20;99.90
10278;DHT22;5184;51.376;7.148;2022-07-23T00:45:36;16.20;99.90
10278;DHT22;5184;51.376;7.148;2022-07-23T00:48:02;16.10;99.90
10278;DHT22;5184;51.376;7.148;2022-07-23T00:50:30;16.10;99.90
10278;DHT22;5184;51.376;7.148;2022-07-23T00:52:56;16.10;99.90
10278;DHT22;5184;51.376;7.148;2022-07-23T00:55:23;16.10;99.90
10278;DHT22;5184;51.376;7.148;2022-07-23T00:57:50;16.10;99.90
10278;DHT22;5184;51.376;7.148;2022-07-23T01:00:17;16.20;99.90
10278;DHT22;5184;51.376;7.148;2022-07-23T01:02:44;16.20;99.90
10278;DHT22;5184;51.376;7.148;2022-07-23T01:05:11;16.20;99.90
10278;DHT22;5184;51.376;7.148;2022-07-23T01:07:38;16.20;99.90
10278;DHT22;5184;51.376;7.148;2022-07-23T01:10:05;16.10;99.90
10278;DHT22;5184;51.376;7.148;2022-07-23T01:12:32;16.10;99.90
10278;DHT22;5184;51.376;7.148;2022-07-23T01:14:59;16.20;99.90
10278;DHT22;5184;51.376;7.148;2022-07-23T01:17:26;16.10;99.90
10278;DHT22;5184;51.376;7.148;2022-07-23T01:19:53;16.20;99.90
10278;DHT22;5184;51.376;7.148;2022-07-23T01:22:19;16.20;99.90
10278;DHT22;5184;51.376;7.148;2022-07-23T01:24:46;16.20;99.90
10278;DHT22;5184;51.376;7.148;2022-07-23T01:27:13;16.10;99.90
10278;DHT22;5184;51.376;7.148;2022-07-23T01:29:40;16.10;99.90
10278;DHT22;5184;51.376;7.148;2022-07-23T01:32:06;16.10;99.90
10278;DHT22;5184;51.376;7.148;2022-07-23T01:34:33;16.00;99.90
10278;DHT22;5184;51.376;7.148;2022-07-23T01:36:59;16.00;99.90
10278;DHT22;5184;51.376;7.148;2022-07-23T01:39:27;16.10;99.90
10278;DHT22;5184;51.376;7.148;2022-07-23T01:41:53;16.10;99.90
10278;DHT22;5184;51.376;7.148;2022-07-23T01:44:20;16.00;99.90
10278;DHT22;5184;51.376;7.148;2022-07-23T01:46:47;16.00;99.90
10278;DHT22;5184;51.376;7.148;2022-07-23T01:49:13;16.00;99.90
10278;DHT22;5184;51.376;7.148;2022-07-23T01:51:40;16.00;99.90
10278;DHT22;5184;51.376;7.148;2022-07-23T01:54:07;16.00;99.90
10278;DHT22;5184;51.376;7.148;2022-07-23T01:56:35;16.00;99.90
10278;DHT22;5184;51.376;7.148;2022-07-23T01:59:01;16.00;99.90
10278;DHT22;5184;51.376;7.148;2022-07-23T02:01:28;16.00;99.90
10278;DHT22;5184;51.376;7.148;2022-07-23T02:03:54;16.00;99.90
10278;DHT22;5184;51.376;7.148;2022-07-23T02:06:22;16.00;99.90
10278;DHT22;5184;51.376;7.148;2022-07-23T02:08:48;16.00;99.90
10278;DHT22;5184;51.376;7.148;2022-07-23T02:11:15;16.00;99.90
10278;DHT22;5184;51.376;7.148;2022-07-23T02:13:42;16.00;99.90
10278;DHT22;5184;51.376;7.148;2022-07-23T02:16:09;16.00;99.90
10278;DHT22;5184;51.376;7.148;2022-07-23T02:18:36;16.00;99.90
10278;DHT22;5184;51.376;7.148;2022-07-23T02:21:03;16.00;99.90
10278;DHT22;5184;51.376;7.148;2022-07-23T02:23:30;15.90;99.90
10278;DHT22;5184;51.376;7.148;2022-07-23T02:25:58;15.90;99.90
10278;DHT22;5184;51.376;7.148;2022-07-23T02:28:24;15.90;99.90
10278;DHT22;5184;51.376;7.148;2022-07-23T02:30:51;15.90;99.90
10278;DHT22;5184;51.376;7.148;2022-07-23T02:33:17;15.90;99.90
10278;DHT22;5184;51.376;7.148;2022-07-23T02:35:45;15.90;99.90
10278;DHT22;5184;51.376;7.148;2022-07-23T02:38:12;15.90;99.90
10278;DHT22;5184;51.376;7.148;2022-07-23T02:40:39;15.90;99.90
10278;DHT22;5184;51.376;7.148;2022-07-23T02:43:05;15.80;99.90
10278;DHT22;5184;51.376;7.148;2022-07-23T02:45:32;15.80;99.90
10278;DHT22;5184;51.376;7.148;2022-07-23T02:47:59;15.70;99.90
10278;DHT22;5184;51.376;7.148;2022-07-23T02:50:26;15.70;99.90
10278;DHT22;5184;51.376;7.148;2022-07-23T02:52:52;15.70;99.90
10278;DHT22;5184;51.376;7.148;2022-07-23T02:55:19;15.70;99.90
10278;DHT22;5184;51.376;7.148;2022-07-23T02:57:46;15.60;99.90
10278;DHT22;5184;51.376;7.148;2022-07-23T03:00:13;15.60;99.90
10278;DHT22;5184;51.376;7.148;2022-07-23T03:02:40;15.50;99.90
10278;DHT22;5184;51.376;7.148;2022-07-23T03:05:07;15.50;99.90
10278;DHT22;5184;51.376;7.148;2022-07-23T03:07:33;15.40;99.90
10278;DHT22;5184;51.376;7.148;2022-07-23T03:10:00;15.40;99.90
10278;DHT22;5184;51.376;7.148;2022-07-23T03:12:27;15.30;99.90
10278;DHT22;5184;51.376;7.148;2022-07-23T03:14:55;15.30;99.90
10278;DHT22;5184;51.376;7.148;2022-07-23T03:17:21;15.30;99.90
10278;DHT22;5184;51.376;7.148;2022-07-23T03:19:48;15.30;99.90
10278;DHT22;5184;51.376;7.148;2022-07-23T03:22:15;15.30;99.90
10278;DHT22;5184;51.376;7.148;2022-07-23T03:24:42;15.20;99.90
10278;DHT22;5184;51.376;7.148;2022-07-23T03:27:15;15.30;99.90
10278;DHT22;5184;51.376;7.148;2022-07-23T03:29:42;15.20;99.90
10278;DHT22;5184;51.376;7.148;2022-07-23T03:32:08;15.30;99.90
10278;DHT22;5184;51.376;7.148;2022-07-23T03:34:35;15.20;99.90
10278;DHT22;5184;51.376;7.148;2022-07-23T03:37:02;15.10;99.90
10278;DHT22;5184;51.376;7.148;2022-07-23T03:39:30;15.00;99.90
10278;DHT22;5184;51.376;7.148;2022-07-23T03:41:56;15.00;99.90
10278;DHT22;5184;51.376;7.148;2022-07-23T03:44:23;15.00;99.90
10278;DHT22;5184;51.376;7.148;2022-07-23T03:46:49;15.00;99.90
10278;DHT22;5184;51.376;7.148;2022-07-23T03:49:17;15.10;99.90
10278;DHT22;5184;51.376;7.148;2022-07-23T03:51:44;15.10;99.90
10278;DHT22;5184;51.376;7.148;2022-07-23T03:54:11;15.10;99.90
10278;DHT22;5184;51.376;7.148;2022-07-23T03:56:37;15.00;99.90
10278;DHT22;5184;51.376;7.148;2022-07-23T03:59:04;15.00;99.90
10278;DHT22;5184;51.376;7.148;2022-07-23T04:01:31;15.00;99.90
10278;DHT22;5184;51.376;7.148;2022-07-23T04:03:58;15.00;99.90
10278;DHT22;5184;51.376;7.148;2022-07-23T04:06:24;15.10;99.90
10278;DHT22;5184;51.376;7.148;2022-07-23T04:08:51;15.20;99.90
10278;DHT22;5184;51.376;7.148;2022-07-23T04:11:18;15.20;99.90
10278;DHT22;5184;51.376;7.148;2022-07-23T04:13:44;15.20;99.90
10278;DHT22;5184;51.376;7.148;2022-07-23T04:16:11;15.30;99.90
10278;DHT22;5184;51.376;7.148;2022-07-23T04:18:38;15.30;99.90
10278;DHT22;5184;51.376;7.148;2022-07-23T04:21:04;15.30;99.90
10278;DHT22;5184;51.376;7.148;2022-07-23T04:23:31;15.40;99.90
10278;DHT22;5184;51.376;7.148;2022-07-23T04:25:57;15.40;99.90
10278;DHT22;5184;51.376;7.148;2022-07-23T04:28:24;15.40;99.90
10278;DHT22;5184;51.376;7.148;2022-07-23T04:30:50;15.40;99.90
10278;DHT22;5184;51.376;7.148;2022-07-23T04:33:17;15.50;99.90
10278;DHT22;5184;51.376;7.148;2022-07-23T04:35:44;15.50;99.90
10278;DHT22;5184;51.376;7.148;2022-07-23T04:38:10;15.50;99.90
10278;DHT22;5184;51.376;7.148;2022-07-23T04:40:38;15.50;99.90
10278;DHT22;5184;51.376;7.148;2022-07-23T04:43:04;15.50;99.90
10278;DHT22;5184;51.376;7.148;2022-07-23T04:45:31;15.60;99.90
10278;DHT22;5184;51.376;7.148;2022-07-23T04:47:57;15.70;99.90
10278;DHT22;5184;51.376;7.148;2022-07-23T04:50:25;15.70;99.90
10278;DHT22;5184;51.376;7.148;2022-07-23T04:52:52;15.70;99.90
10278;DHT22;5184;51.376;7.148;2022-07-23T04:55:19;15.80;99.90
10278;DHT22;5184;51.376;7.148;2022-07-23T04:57:45;15.70;99.90
10278;DHT22;5184;51.376;7.148;2022-07-23T05:00:12;15.70;99.90
10278;DHT22;5184;51.376;7.148;2022-07-23T05:02:40;15.70;99.90
10278;DHT22;5184;51.376;7.148;2022-07-23T05:05:07;15.70;99.90
10278;DHT22;5184;51.376;7.148;2022-07-23T05:07:33;15.70;99.90
10278;DHT22;5184;51.376;7.148;2022-07-23T05:10:00;15.70;99.90
10278;DHT22;5184;51.376;7.148;2022-07-23T05:12:26;15.70;99.90
10278;DHT22;5184;51.376;7.148;2022-07-23T05:14:53;15.70;99.90
10278;DHT22;5184;51.376;7.148;2022-07-23T05:17:20;15.80;99.90
10278;DHT22;5184;51.376;7.148;2022-07-23T05:19:47;15.90;99.90
10278;DHT22;5184;51.376;7.148;2022-07-23T05:22:13;15.80;99.90
10278;DHT22;5184;51.376;7.148;2022-07-23T05:24:40;15.90;99.90
10278;DHT22;5184;51.376;7.148;2022-07-23T05:27:07;15.90;99.90
10278;DHT22;5184;51.376;7.148;2022-07-23T05:29:34;16.00;99.90
10278;DHT22;5184;51.376;7.148;2022-07-23T05:32:01;16.00;99.90
10278;DHT22;5184;51.376;7.148;2022-07-23T05:34:28;16.00;99.90
10278;DHT22;5184;51.376;7.148;2022-07-23T05:36:55;16.00;99.90
10278;DHT22;5184;51.376;7.148;2022-07-23T05:39:21;16.10;99.90
10278;DHT22;5184;51.376;7.148;2022-07-23T05:41:49;16.10;99.90
10278;DHT22;5184;51.376;7.148;2022-07-23T05:44:15;16.10;99.90
10278;DHT22;5184;51.376;7.148;2022-07-23T05:46:42;16.10;99.90
10278;DHT22;5184;51.376;7.148;2022-07-23T05:49:08;16.10;99.90
10278;DHT22;5184;51.376;7.148;2022-07-23T05:51:36;16.10;99.90
10278;DHT22;5184;51.376;7.148;2022-07-23T05:54:03;16.10;99.90
10278;DHT22;5184;51.376;7.148;2022-07-23T05:56:30;16.10;99.90
10278;DHT22;5184;51.376;7.148;2022-07-23T05:58:56;16.10;99.90
10278;DHT22;5184;51.376;7.148;2022-07-23T06:01:24;16.10;99.90
10278;DHT22;5184;51.376;7.148;2022-07-23T06:03:50;16.10;99.90
10278;DHT22;5184;51.376;7.148;2022-07-23T06:06:17;16.20;99.90
10278;DHT22;5184;51.376;7.148;2022-07-23T06:08:43;16.20;99.90
10278;DHT22;5184;51.376;7.148;2022-07-23T06:11:10;16.00;99.90
10278;DHT22;5184;51.376;7.148;2022-07-23T06:13:37;16.50;99.90
10278;DHT22;5184;51.376;7.148;2022-07-23T06:16:05;16.60;99.90
10278;DHT22;5184;51.376;7.148;2022-07-23T06:18:31;16.50;99.90
10278;DHT22;5184;51.376;7.148;2022-07-23T06:20:58;16.60;99.90
10278;DHT22;5184;51.376;7.148;2022-07-23T06:23:25;16.60;42.00
10278;DHT22;5184;51.376;7.148;2022-07-23T06:25:52;16.50;27.90
10278;DHT22;5184;51.376;7.148;2022-07-23T06:28:19;16.50;23.40
10278;DHT22;5184;51.376;7.148;2022-07-23T06:30:46;16.60;78.10
10278;DHT22;5184;51.376;7.148;2022-07-23T06:33:12;16.50;1.00
10278;DHT22;5184;51.376;7.148;2022-07-23T06:35:39;16.50;1.00
10278;DHT22;5184;51.376;7.148;2022-07-23T06:38:07;16.50;1.00
10278;DHT22;5184;51.376;7.148;2022-07-23T06:40:33;16.50;1.00
10278;DHT22;5184;51.376;7.148;2022-07-23T06:43:00;16.70;52.20
10278;DHT22;5184;51.376;7.148;2022-07-23T06:45:27;16.80;1.00
10278;DHT22;5184;51.376;7.148;2022-07-23T06:47:53;16.70;1.00
10278;DHT22;5184;51.376;7.148;2022-07-23T06:50:21;16.40;1.00
10278;DHT22;5184;51.376;7.148;2022-07-23T06:52:48;16.30;1.00
10278;DHT22;5184;51.376;7.148;2022-07-23T06:55:15;16.30;14.50
10278;DHT22;5184;51.376;7.148;2022-07-23T06:57:42;16.30;10.50
10278;DHT22;5184;51.376;7.148;2022-07-23T07:00:09;16.30;1.00
10278;DHT22;5184;51.376;7.148;2022-07-23T07:02:36;16.10;13.10
10278;DHT22;5184;51.376;7.148;2022-07-23T07:05:03;16.40;49.30
10278;DHT22;5184;51.376;7.148;2022-07-23T07:07:30;16.60;1.00
10278;DHT22;5184;51.376;7.148;2022-07-23T07:09:57;16.60;1.00
10278;DHT22;5184;51.376;7.148;2022-07-23T07:12:23;16.70;44.60
10278;DHT22;5184;51.376;7.148;2022-07-23T07:14:50;16.90;53.00
10278;DHT22;5184;51.376;7.148;2022-07-23T07:17:17;16.90;99.90
10278;DHT22;5184;51.376;7.148;2022-07-23T07:19:44;16.90;99.90
10278;DHT22;5184;51.376;7.148;2022-07-23T07:22:11;16.90;99.90
10278;DHT22;5184;51.376;7.148;2022-07-23T07:24:38;17.00;99.90
10278;DHT22;5184;51.376;7.148;2022-07-23T07:27:04;16.80;99.90
10278;DHT22;5184;51.376;7.148;2022-07-23T07:29:32;17.10;99.90
10278;DHT22;5184;51.376;7.148;2022-07-23T07:31:58;17.10;99.90
10278;DHT22;5184;51.376;7.148;2022-07-23T07:34:25;17.10;99.90
10278;DHT22;5184;51.376;7.148;2022-07-23T07:36:52;17.20;1.00
10278;DHT22;5184;51.376;7.148;2022-07-23T07:39:19;17.20;99.90
10278;DHT22;5184;51.376;7.148;2022-07-23T07:41:46;17.30;99.90
10278;DHT22;5184;51.376;7.148;2022-07-23T07:44:13;17.30;99.90
10278;DHT22;5184;51.376;7.148;2022-07-23T07:46:39;17.50;1.00
10278;DHT22;5184;51.376;7.148;2022-07-23T07:49:06;17.40;99.90
10278;DHT22;5184;51.376;7.148;2022-07-23T07:51:33;17.60;13.30
10278;DHT22;5184;51.376;7.148;2022-07-23T07:54:01;17.90;99.90
10278;DHT22;5184;51.376;7.148;2022-07-23T07:56:27;17.80;99.90
10278;DHT22;5184;51.376;7.148;2022-07-23T07:58:54;18.00;1.00
10278;DHT22;5184;51.376;7.148;2022-07-23T08:01:21;18.10;69.30
10278;DHT22;5184;51.376;7.148;2022-07-23T08:03:48;18.40;99.90
10278;DHT22;5184;51.376;7.148;2022-07-23T08:06:15;18.40;87.20
10278;DHT22;5184;51.376;7.148;2022-07-23T08:08:42;18.40;66.60
10278;DHT22;5184;51.376;7.148;2022-07-23T08:11:09;18.40;99.90
10278;DHT22;5184;51.376;7.148;2022-07-23T08:13:35;18.40;99.90
10278;DHT22;5184;51.376;7.148;2022-07-23T08:16:03;18.50;1.00
10278;DHT22;5184;51.376;7.148;2022-07-23T08:18:29;18.40;1.00
10278;DHT22;5184;51.376;7.148;2022-07-23T08:20:56;18.30;1.00
10278;DHT22;5184;51.376;7.148;2022-07-23T08:23:22;18.20;38.00
10278;DHT22;5184;51.376;7.148;2022-07-23T08:25:50;18.20;99.90
10278;DHT22;5184;51.376;7.148;2022-07-23T08:28:17;18.20;99.90
10278;DHT22;5184;51.376;7.148;2022-07-23T08:30:44;18.20;99.90
10278;DHT22;5184;51.376;7.148;2022-07-23T08:33:11;18.20;99.90
10278;DHT22;5184;51.376;7.148;2022-07-23T08:35:38;18.40;99.90
10278;DHT22;5184;51.376;7.148;2022-07-23T08:38:05;18.80;1.00
10278;DHT22;5184;51.376;7.148;2022-07-23T08:40:33;18.80;1.00
10278;DHT22;5184;51.376;7.148;2022-07-23T08:42:58;18.70;1.00
10278;DHT22;5184;51.376;7.148;2022-07-23T08:45:25;19.00;1.00
10278;DHT22;5184;51.376;7.148;2022-07-23T08:47:53;19.10;99.90
10278;DHT22;5184;51.376;7.148;2022-07-23T08:50:18;19.20;50.40
10278;DHT22;5184;51.376;7.148;2022-07-23T08:52:45;19.20;99.90
10278;DHT22;5184;51.376;7.148;2022-07-23T08:55:12;19.10;1.00
10278;DHT22;5184;51.376;7.148;2022-07-23T08:57:38;19.20;99.90
10278;DHT22;5184;51.376;7.148;2022-07-23T09:00:05;19.30;1.00
10278;DHT22;5184;51.376;7.148;2022-07-23T09:02:40;19.30;99.90
10278;DHT22;5184;51.376;7.148;2022-07-23T09:05:08;19.20;1.00
10278;DHT22;5184;51.376;7.148;2022-07-23T09:07:34;19.20;1.00
10278;DHT22;5184;51.376;7.148;2022-07-23T09:10:08;19.30;99.90
10278;DHT22;5184;51.376;7.148;2022-07-23T09:12:34;19.40;1.00
10278;DHT22;5184;51.376;7.148;2022-07-23T09:15:05;19.50;1.00
10278;DHT22;5184;51.376;7.148;2022-07-23T09:17:41;19.60;1.00
10278;DHT22;5184;51.376;7.148;2022-07-23T09:20:09;19.50;1.00
10278;DHT22;5184;51.376;7.148;2022-07-23T09:22:35;19.50;1.00
10278;DHT22;5184;51.376;7.148;2022-07-23T09:25:03;19.50;1.00
10278;DHT22;5184;51.376;7.148;2022-07-23T09:30:08;19.40;1.00
10278;DHT22;5184;51.376;7.148;2022-07-23T09:32:35;19.60;1.00
10278;DHT22;5184;51.376;7.148;2022-07-23T09:35:02;19.60;30.00
10278;DHT22;5184;51.376;7.148;2022-07-23T09:37:28;19.60;99.90
10278;DHT22;5184;51.376;7.148;2022-07-23T09:40:02;19.80;99.90
10278;DHT22;5184;51.376;7.148;2022-07-23T09:42:24;19.80;99.90
10278;DHT22;5184;51.376;7.148;2022-07-23T09:44:51;19.80;1.00
10278;DHT22;5184;51.376;7.148;2022-07-23T09:47:16;19.70;99.90
10278;DHT22;5184;51.376;7.148;2022-07-23T09:50:06;19.60;1.00
10278;DHT22;5184;51.376;7.148;2022-07-23T09:52:33;19.60;1.00
10278;DHT22;5184;51.376;7.148;2022-07-23T09:55:01;19.80;99.90
10278;DHT22;5184;51.376;7.148;2022-07-23T09:57:27;20.00;99.90
10278;DHT22;5184;51.376;7.148;2022-07-23T09:59:56;20.00;99.90
10278;DHT22;5184;51.376;7.148;2022-07-23T10:02:20;20.00;99.90
10278;DHT22;5184;51.376;7.148;2022-07-23T10:04:47;20.00;99.90
10278;DHT22;5184;51.376;7.148;2022-07-23T10:07:14;20.20;99.90
10278;DHT22;5184;51.376;7.148;2022-07-23T10:09:41;20.20;99.90
10278;DHT22;5184;51.376;7.148;2022-07-23T10:12:11;20.30;99.90
10278;DHT22;5184;51.376;7.148;2022-07-23T10:14:52;20.40;99.90
10278;DHT22;5184;51.376;7.148;2022-07-23T10:17:18;20.40;39.50
10278;DHT22;5184;51.376;7.148;2022-07-23T10:19:45;20.40;1.00
10278;DHT22;5184;51.376;7.148;2022-07-23T10:22:13;20.40;1.00
10278;DHT22;5184;51.376;7.148;2022-07-23T10:24:49;20.40;1.00
10278;DHT22;5184;51.376;7.148;2022-07-23T10:28:40;20.60;99.90
10278;DHT22;5184;51.376;7.148;2022-07-23T10:30:12;20.70;1.00
10278;DHT22;5184;51.376;7.148;2022-07-23T10:32:46;20.70;1.00
10278;DHT22;5184;51.376;7.148;2022-07-23T10:35:33;20.80;99.90
10278;DHT22;5184;51.376;7.148;2022-07-23T10:38:01;20.90;99.90
10278;DHT22;5184;51.376;7.148;2022-07-23T10:40:23;21.10;99.90
10278;DHT22;5184;51.376;7.148;2022-07-23T10:42:51;21.10;99.90
10278;DHT22;5184;51.376;7.148;2022-07-23T10:45:25;21.10;99.90
10278;DHT22;5184;51.376;7.148;2022-07-23T10:47:50;21.00;99.90
10278;DHT22;5184;51.376;7.148;2022-07-23T10:50:22;21.10;1.00
10278;DHT22;5184;51.376;7.148;2022-07-23T10:55:43;21.30;99.90
10278;DHT22;5184;51.376;7.148;2022-07-23T10:58:08;21.40;99.90
10278;DHT22;5184;51.376;7.148;2022-07-23T11:00:35;21.40;99.90
10278;DHT22;5184;51.376;7.148;2022-07-23T11:03:05;21.30;99.90
10278;DHT22;5184;51.376;7.148;2022-07-23T11:05:41;21.30;99.90
10278;DHT22;5184;51.376;7.148;2022-07-23T11:08:13;21.60;99.90
10278;DHT22;5184;51.376;7.148;2022-07-23T11:10:55;21.50;99.90
10278;DHT22;5184;51.376;7.148;2022-07-23T11:13:26;21.80;99.90
10278;DHT22;5184;51.376;7.148;2022-07-23T11:16:05;21.80;99.90
10278;DHT22;5184;51.376;7.148;2022-07-23T11:18:55;22.00;99.90
10278;DHT22;5184;51.376;7.148;2022-07-23T11:21:40;22.20;99.90
10278;DHT22;5184;51.376;7.148;2022-07-23T11:24:07;22.20;1.00
10278;DHT22;5184;51.376;7.148;2022-07-23T11:26:48;22.10;2.30
10278;DHT22;5184;51.376;7.148;2022-07-23T11:29:40;22.00;1.00
10278;DHT22;5184;51.376;7.148;2022-07-23T11:32:08;22.10;25.20
10278;DHT22;5184;51.376;7.148;2022-07-23T11:34:41;22.20;86.40
10278;DHT22;5184;51.376;7.148;2022-07-23T11:37:09;22.30;7.30
10278;DHT22;5184;51.376;7.148;2022-07-23T11:39:38;22.40;1.00
10278;DHT22;5184;51.376;7.148;2022-07-23T11:42:05;22.40;1.00
10278;DHT22;5184;51.376;7.148;2022-07-23T11:44:39;22.30;1.00
10278;DHT22;5184;51.376;7.148;2022-07-23T11:47:07;22.40;1.00
10278;DHT22;5184;51.376;7.148;2022-07-23T11:49:34;22.30;1.00
10278;DHT22;5184;51.376;7.148;2022-07-23T11:52:12;22.40;1.00
10278;DHT22;5184;51.376;7.148;2022-07-23T11:54:51;22.50;1.00
10278;DHT22;5184;51.376;7.148;2022-07-23T11:57:18;22.80;1.00
10278;DHT22;5184;51.376;7.148;2022-07-23T11:59:47;22.70;1.00
10278;DHT22;5184;51.376;7.148;2022-07-23T12:02:12;22.70;1.00
10278;DHT22;5184;51.376;7.148;2022-07-23T12:04:40;22.80;1.00
10278;DHT22;5184;51.376;7.148;2022-07-23T12:07:25;22.90;1.00
10278;DHT22;5184;51.376;7.148;2022-07-23T12:09:52;23.40;1.00
10278;DHT22;5184;51.376;7.148;2022-07-23T12:12:19;23.50;1.00
10278;DHT22;5184;51.376;7.148;2022-07-23T12:14:49;23.60;1.00
10278;DHT22;5184;51.376;7.148;2022-07-23T12:17:15;23.60;1.00
10278;DHT22;5184;51.376;7.148;2022-07-23T12:19:42;23.60;99.90
10278;DHT22;5184;51.376;7.148;2022-07-23T12:22:08;23.60;99.90
10278;DHT22;5184;51.376;7.148;2022-07-23T12:27:13;23.50;10.80
10278;DHT22;5184;51.376;7.148;2022-07-23T12:29:40;23.30;1.00
10278;DHT22;5184;51.376;7.148;2022-07-23T12:32:19;23.10;1.00
10278;DHT22;5184;51.376;7.148;2022-07-23T12:34:45;23.20;1.00
10278;DHT22;5184;51.376;7.148;2022-07-23T12:39:49;23.40;1.70
10278;DHT22;5184;51.376;7.148;2022-07-23T12:42:16;23.60;1.00
10278;DHT22;5184;51.376;7.148;2022-07-23T12:45:02;23.70;1.00
10278;DHT22;5184;51.376;7.148;2022-07-23T12:47:09;23.80;1.00
10278;DHT22;5184;51.376;7.148;2022-07-23T12:49:36;23.90;1.00
10278;DHT22;5184;51.376;7.148;2022-07-23T12:52:14;23.80;1.00
10278;DHT22;5184;51.376;7.148;2022-07-23T12:54:30;23.90;1.00
10278;DHT22;5184;51.376;7.148;2022-07-23T12:56:57;23.90;1.00
10278;DHT22;5184;51.376;7.148;2022-07-23T12:59:24;23.70;1.00
10278;DHT22;5184;51.376;7.148;2022-07-23T13:01:54;23.90;1.00
10278;DHT22;5184;51.376;7.148;2022-07-23T13:04:22;23.80;1.00
10278;DHT22;5184;51.376;7.148;2022-07-23T13:06:49;23.90;1.00
10278;DHT22;5184;51.376;7.148;2022-07-23T13:09:17;24.10;1.00
10278;DHT22;5184;51.376;7.148;2022-07-23T13:11:43;24.20;1.00
10278;DHT22;5184;51.376;7.148;2022-07-23T13:14:09;24.30;1.00
10278;DHT22;5184;51.376;7.148;2022-07-23T13:16:36;24.80;1.00
10278;DHT22;5184;51.376;7.148;2022-07-23T13:19:04;24.90;1.00
10278;DHT22;5184;51.376;7.148;2022-07-23T13:21:31;25.00;1.00
10278;DHT22;5184;51.376;7.148;2022-07-23T13:23:58;24.90;1.00
10278;DHT22;5184;51.376;7.148;2022-07-23T13:26:26;24.70;1.00
10278;DHT22;5184;51.376;7.148;2022-07-23T13:28:52;24.70;1.00
10278;DHT22;5184;51.376;7.148;2022-07-23T13:31:19;24.70;1.00
10278;DHT22;5184;51.376;7.148;2022-07-23T13:33:46;24.70;1.00
10278;DHT22;5184;51.376;7.148;2022-07-23T13:36:12;24.80;1.00
10278;DHT22;5184;51.376;7.148;2022-07-23T13:38:39;25.10;1.00
10278;DHT22;5184;51.376;7.148;2022-07-23T13:41:05;25.10;1.00
10278;DHT22;5184;51.376;7.148;2022-07-23T13:43:33;25.50;1.00
10278;DHT22;5184;51.376;7.148;2022-07-23T13:46:00;25.40;1.00
10278;DHT22;5184;51.376;7.148;2022-07-23T13:48:27;25.10;1.00
10278;DHT22;5184;51.376;7.148;2022-07-23T13:50:54;25.10;1.00
10278;DHT22;5184;51.376;7.148;2022-07-23T13:53:22;25.10;1.00
10278;DHT22;5184;51.376;7.148;2022-07-23T13:55:48;25.40;1.00
10278;DHT22;5184;51.376;7.148;2022-07-23T13:58:14;25.60;1.00
10278;DHT22;5184;51.376;7.148;2022-07-23T14:00:42;25.80;1.00
10278;DHT22;5184;51.376;7.148;2022-07-23T14:03:07;25.60;1.00
10278;DHT22;5184;51.376;7.148;2022-07-23T14:05:34;25.70;1.00
10278;DHT22;5184;51.376;7.148;2022-07-23T14:08:01;26.10;1.00
10278;DHT22;5184;51.376;7.148;2022-07-23T14:10:28;26.00;1.00
10278;DHT22;5184;51.376;7.148;2022-07-23T14:12:56;25.80;1.00
10278;DHT22;5184;51.376;7.148;2022-07-23T14:15:24;25.90;1.00
10278;DHT22;5184;51.376;7.148;2022-07-23T14:17:50;25.90;1.00
10278;DHT22;5184;51.376;7.148;2022-07-23T14:20:16;26.00;1.00
10278;DHT22;5184;51.376;7.148;2022-07-23T14:22:43;26.10;1.00
10278;DHT22;5184;51.376;7.148;2022-07-23T14:25:09;26.40;1.00
10278;DHT22;5184;51.376;7.148;2022-07-23T14:27:36;26.30;1.00
10278;DHT22;5184;51.376;7.148;2022-07-23T14:30:04;26.10;1.00
10278;DHT22;5184;51.376;7.148;2022-07-23T14:32:30;26.00;1.00
10278;DHT22;5184;51.376;7.148;2022-07-23T14:34:57;26.10;1.00
10278;DHT22;5184;51.376;7.148;2022-07-23T14:37:24;26.20;1.00
10278;DHT22;5184;51.376;7.148;2022-07-23T14:39:51;26.30;1.00
10278;DHT22;5184;51.376;7.148;2022-07-23T14:42:17;26.50;1.00
10278;DHT22;5184;51.376;7.148;2022-07-23T14:44:43;26.80;1.00
10278;DHT22;5184;51.376;7.148;2022-07-23T14:47:11;26.80;1.00
10278;DHT22;5184;51.376;7.148;2022-07-23T14:49:38;26.80;1.00
10278;DHT22;5184;51.376;7.148;2022-07-23T14:52:06;27.20;1.00
10278;DHT22;5184;51.376;7.148;2022-07-23T14:54:33;27.50;1.00
10278;DHT22;5184;51.376;7.148;2022-07-23T14:57:00;27.40;1.00
10278;DHT22;5184;51.376;7.148;2022-07-23T14:59:26;27.40;1.00
10278;DHT22;5184;51.376;7.148;2022-07-23T15:01:53;27.20;1.00
10278;DHT22;5184;51.376;7.148;2022-07-23T15:04:19;27.20;1.00
10278;DHT22;5184;51.376;7.148;2022-07-23T15:06:46;26.70;1.00
10278;DHT22;5184;51.376;7.148;2022-07-23T15:09:12;26.50;1.00
10278;DHT22;5184;51.376;7.148;2022-07-23T15:11:39;26.50;1.00
10278;DHT22;5184;51.376;7.148;2022-07-23T15:14:07;27.60;1.00
10278;DHT22;5184;51.376;7.148;2022-07-23T15:16:34;28.00;1.00
10278;DHT22;5184;51.376;7.148;2022-07-23T15:19:02;28.00;1.00
10278;DHT22;5184;51.376;7.148;2022-07-23T15:21:28;28.00;1.00
10278;DHT22;5184;51.376;7.148;2022-07-23T15:23:56;28.30;1.00
10278;DHT22;5184;51.376;7.148;2022-07-23T15:26:23;28.10;1.00
10278;DHT22;5184;51.376;7.148;2022-07-23T15:28:51;28.50;1.00
10278;DHT22;5184;51.376;7.148;2022-07-23T15:31:18;28.70;1.00
10278;DHT22;5184;51.376;7.148;2022-07-23T15:33:45;28.90;1.00
10278;DHT22;5184;51.376;7.148;2022-07-23T15:36:12;28.90;1.00
10278;DHT22;5184;51.376;7.148;2022-07-23T15:38:38;28.90;1.00
10278;DHT22;5184;51.376;7.148;2022-07-23T15:41:05;28.90;1.00
10278;DHT22;5184;51.376;7.148;2022-07-23T15:43:32;28.70;1.00
10278;DHT22;5184;51.376;7.148;2022-07-23T15:45:58;28.80;1.00
10278;DHT22;5184;51.376;7.148;2022-07-23T15:48:26;28.80;1.00
10278;DHT22;5184;51.376;7.148;2022-07-23T15:50:53;29.00;1.00
10278;DHT22;5184;51.376;7.148;2022-07-23T15:53:20;29.10;1.00
10278;DHT22;5184;51.376;7.148;2022-07-23T15:55:48;28.90;1.00
10278;DHT22;5184;51.376;7.148;2022-07-23T15:58:15;28.70;1.00
10278;DHT22;5184;51.376;7.148;2022-07-23T16:00:42;28.20;1.00
10278;DHT22;5184;51.376;7.148;2022-07-23T16:03:10;28.30;1.00
10278;DHT22;5184;51.376;7.148;2022-07-23T16:05:37;28.50;1.00